createdAt,value
2018-01-20T00:00:51.254Z,0
2018-01-20T00:01:51.693Z,0
2018-01-20T00:02:51.685Z,0
2018-01-20T00:03:51.717Z,0
2018-01-20T00:05:51.738Z,0
2018-01-20T00:07:51.758Z,0
2018-01-20T00:08:51.801Z,0
2018-01-20T00:09:51.827Z,0
2018-01-20T00:10:51.661Z,0
2018-01-20T00:11:51.667Z,0
2018-01-20T00:12:51.565Z,0
2018-01-20T00:13:51.341Z,0
2018-01-20T00:15:06.523Z,0
2018-01-20T00:15:51.703Z,0
2018-01-20T00:16:51.394Z,0
2018-01-20T00:17:51.878Z,0
2018-01-20T00:18:51.916Z,0
2018-01-20T00:19:51.945Z,0
2018-01-20T00:20:52.026Z,0
2018-01-20T00:21:51.976Z,0
2018-01-20T00:22:51.991Z,0
2018-01-20T00:23:52.010Z,0
2018-01-20T00:25:06.685Z,0
2018-01-20T00:25:52.060Z,0
2018-01-20T00:27:06.692Z,0
2018-01-20T00:27:51.792Z,0
2018-01-20T00:28:51.568Z,0
2018-01-20T00:30:06.770Z,0
2018-01-20T00:30:52.211Z,0
2018-01-20T00:31:51.846Z,0
2018-01-20T00:32:52.095Z,0
2018-01-20T00:33:52.151Z,0
2018-01-20T00:34:52.130Z,0
2018-01-20T00:35:51.900Z,0
2018-01-20T00:36:52.029Z,0
2018-01-20T00:37:52.195Z,0
2018-01-20T00:38:52.188Z,0
2018-01-20T00:39:52.195Z,0
2018-01-20T00:40:52.229Z,0
2018-01-20T00:41:52.227Z,0
2018-01-20T00:42:52.285Z,0
2018-01-20T00:43:52.042Z,0
2018-01-20T00:44:52.029Z,0
2018-01-20T00:45:52.052Z,0
2018-01-20T00:46:52.343Z,0
2018-01-20T00:47:52.169Z,0
2018-01-20T00:48:52.348Z,0
2018-01-20T00:50:51.855Z,0
2018-01-20T00:51:52.375Z,0
2018-01-20T00:52:52.385Z,0
2018-01-20T00:53:52.298Z,0
2018-01-20T00:54:52.433Z,0
2018-01-20T00:55:52.434Z,0
2018-01-20T00:56:52.233Z,0
2018-01-20T00:57:52.228Z,0
2018-01-20T00:59:07.148Z,0
2018-01-20T00:59:52.288Z,0
2018-01-20T01:02:52.331Z,0
2018-01-20T01:03:52.537Z,0
2018-01-20T01:05:52.588Z,0
2018-01-20T01:06:52.386Z,0
2018-01-20T01:07:52.618Z,0
2018-01-20T01:08:52.654Z,0
2018-01-20T01:09:52.730Z,0
2018-01-20T01:10:52.669Z,0
2018-01-20T01:11:52.711Z,0
2018-01-20T01:12:52.418Z,0
2018-01-20T01:13:52.711Z,0
2018-01-20T01:14:52.706Z,0
2018-01-20T01:15:52.768Z,0
2018-01-20T01:16:52.730Z,0
2018-01-20T01:18:07.198Z,0
2018-01-20T01:18:52.794Z,0
2018-01-20T01:19:52.536Z,0
2018-01-20T01:20:52.823Z,0
2018-01-20T01:21:52.725Z,0
2018-01-20T01:22:52.838Z,0
2018-01-20T01:23:52.845Z,0
2018-01-20T01:24:52.862Z,0
2018-01-20T01:25:52.638Z,0
2018-01-20T01:26:52.918Z,0
2018-01-20T01:27:52.929Z,0
2018-01-20T01:29:52.682Z,0
2018-01-20T01:30:52.958Z,0
2018-01-20T01:31:52.978Z,0
2018-01-20T01:32:52.733Z,0
2018-01-20T01:34:53.007Z,0
2018-01-20T01:35:52.809Z,0
2018-01-20T01:36:53.059Z,0
2018-01-20T01:37:52.774Z,0
2018-01-20T01:39:53.096Z,0
2018-01-20T01:40:52.930Z,0
2018-01-20T01:41:52.881Z,0
2018-01-20T01:43:07.818Z,0
2018-01-20T01:44:07.569Z,0
2018-01-20T01:45:53.136Z,0
2018-01-20T01:46:53.151Z,0
2018-01-20T01:47:52.919Z,0
2018-01-20T01:48:53.195Z,0
2018-01-20T01:50:22.311Z,0
2018-01-20T01:50:53.288Z,0
2018-01-20T01:52:07.961Z,0
2018-01-20T01:52:53.026Z,0
2018-01-20T01:53:53.392Z,0
2018-01-20T01:54:53.021Z,0
2018-01-20T01:55:53.028Z,0
2018-01-20T01:57:08.000Z,0
2018-01-20T01:57:53.339Z,0
2018-01-20T01:58:53.339Z,0
2018-01-20T01:59:53.345Z,0
2018-01-20T02:00:53.352Z,0
2018-01-20T02:02:08.070Z,0
2018-01-20T02:02:52.892Z,0
2018-01-20T02:03:52.894Z,0
2018-01-20T02:05:22.528Z,0
2018-01-20T02:05:53.441Z,0
2018-01-20T02:06:53.486Z,0
2018-01-20T02:07:53.471Z,0
2018-01-20T02:09:07.901Z,0
2018-01-20T02:09:53.233Z,0
2018-01-20T02:11:07.928Z,0
2018-01-20T02:11:53.280Z,0
2018-01-20T02:12:53.545Z,0
2018-01-20T02:13:53.294Z,0
2018-01-20T02:15:08.276Z,0
2018-01-20T02:15:52.943Z,0
2018-01-20T02:17:08.031Z,0
2018-01-20T02:18:53.652Z,0
2018-01-20T02:19:53.145Z,0
2018-01-20T02:21:08.373Z,0
2018-01-20T02:22:53.700Z,0
2018-01-20T02:23:53.678Z,0
2018-01-20T02:24:53.740Z,0
2018-01-20T02:25:53.729Z,0
2018-01-20T02:26:53.593Z,0
2018-01-20T02:27:53.757Z,0
2018-01-20T02:29:53.566Z,0
2018-01-20T02:31:53.670Z,0
2018-01-20T02:32:53.316Z,0
2018-01-20T02:33:53.575Z,0
2018-01-20T02:34:53.862Z,0
2018-01-20T02:35:53.631Z,0
2018-01-20T02:37:53.787Z,0
2018-01-20T02:38:53.948Z,0
2018-01-20T02:39:53.678Z,0
2018-01-20T02:40:53.923Z,0
2018-01-20T02:41:53.687Z,0
2018-01-20T02:43:08.414Z,0
2018-01-20T02:43:53.723Z,0
2018-01-20T02:44:53.760Z,0
2018-01-20T02:45:53.773Z,0
2018-01-20T02:47:08.742Z,0
2018-01-20T02:47:54.061Z,0
2018-01-20T02:49:54.080Z,0
2018-01-20T02:50:54.104Z,0
2018-01-20T02:51:54.087Z,0
2018-01-20T02:53:08.801Z,0
2018-01-20T02:53:53.899Z,0
2018-01-20T02:54:54.172Z,0
2018-01-20T02:56:53.904Z,0
2018-01-20T02:57:53.938Z,0
2018-01-20T02:58:53.957Z,0
2018-01-20T02:59:53.955Z,0
2018-01-20T03:00:54.246Z,0
2018-01-20T03:01:54.283Z,0
2018-01-20T03:03:08.841Z,0
2018-01-20T03:03:54.298Z,0
2018-01-20T03:05:54.277Z,0
2018-01-20T03:06:54.074Z,0
2018-01-20T03:08:08.740Z,0
2018-01-20T03:09:08.780Z,0
2018-01-20T03:09:54.363Z,0
2018-01-20T03:10:54.227Z,0
2018-01-20T03:11:54.257Z,0
2018-01-20T03:12:54.520Z,0
2018-01-20T03:13:53.910Z,0
2018-01-20T03:14:53.925Z,0
2018-01-20T03:15:54.194Z,0
2018-01-20T03:16:54.200Z,0
2018-01-20T03:17:54.224Z,0
2018-01-20T03:18:54.239Z,0
2018-01-20T03:19:54.622Z,0
2018-01-20T03:21:09.305Z,0
2018-01-20T03:21:54.308Z,0
2018-01-20T03:22:54.332Z,0
2018-01-20T03:23:54.555Z,0
2018-01-20T03:25:09.258Z,0
2018-01-20T03:25:54.356Z,0
2018-01-20T03:26:54.102Z,0
2018-01-20T03:27:54.697Z,0
2018-01-20T03:28:54.385Z,0
2018-01-20T03:29:54.644Z,0
2018-01-20T03:30:54.655Z,0
2018-01-20T03:31:54.423Z,0
2018-01-20T03:32:54.270Z,0
2018-01-20T03:33:54.456Z,0
2018-01-20T03:34:54.843Z,0
2018-01-20T03:35:54.469Z,0
2018-01-20T03:37:09.158Z,0
2018-01-20T03:37:54.508Z,0
2018-01-20T03:38:54.780Z,0
2018-01-20T03:40:09.221Z,0
2018-01-20T03:40:54.536Z,0
2018-01-20T03:41:54.552Z,0
2018-01-20T03:42:54.310Z,0
2018-01-20T03:43:54.606Z,0
2018-01-20T03:44:54.614Z,0
2018-01-20T03:46:09.309Z,0
2018-01-20T03:46:54.914Z,0
2018-01-20T03:47:54.407Z,0
2018-01-20T03:48:54.663Z,0
2018-01-20T03:49:54.663Z,0
2018-01-20T03:50:54.734Z,0
2018-01-20T03:51:54.469Z,0
2018-01-20T03:52:54.961Z,0
2018-01-20T03:53:54.734Z,0
2018-01-20T03:55:09.666Z,0
2018-01-20T03:55:54.766Z,0
2018-01-20T03:56:54.759Z,0
2018-01-20T03:57:54.816Z,0
2018-01-20T03:58:55.065Z,0
2018-01-20T03:59:54.829Z,0
2018-01-20T04:00:55.065Z,0
2018-01-20T04:01:54.607Z,0
2018-01-20T04:02:55.115Z,0
2018-01-20T04:04:54.892Z,0
2018-01-20T04:05:54.672Z,0
2018-01-20T04:06:54.673Z,0
2018-01-20T04:09:09.984Z,0
2018-01-20T04:09:54.697Z,0
2018-01-20T04:10:54.975Z,0
2018-01-20T04:12:09.949Z,0
2018-01-20T04:12:55.005Z,0
2018-01-20T04:14:09.957Z,0
2018-01-20T04:14:54.790Z,0
2018-01-20T04:15:55.036Z,0
2018-01-20T04:17:54.834Z,0
2018-01-20T04:18:55.324Z,0
2018-01-20T04:19:54.857Z,0
2018-01-20T04:20:55.111Z,0
2018-01-20T04:21:55.387Z,0
2018-01-20T04:22:55.145Z,0
2018-01-20T04:23:55.427Z,0
2018-01-20T04:24:55.566Z,0
2018-01-20T04:25:54.916Z,0
2018-01-20T04:26:54.709Z,0
2018-01-20T04:28:09.638Z,0
2018-01-20T04:29:55.600Z,0
2018-01-20T04:30:55.496Z,0
2018-01-20T04:31:55.547Z,0
2018-01-20T04:33:10.226Z,0
2018-01-20T04:33:55.552Z,0
2018-01-20T04:34:55.586Z,0
2018-01-20T04:35:55.586Z,0
2018-01-20T04:36:55.337Z,0
2018-01-20T04:38:10.297Z,0
2018-01-20T04:38:55.366Z,0
2018-01-20T04:39:55.625Z,0
2018-01-20T04:40:55.685Z,0
2018-01-20T04:41:55.685Z,0
2018-01-20T04:42:55.681Z,0
2018-01-20T04:44:09.861Z,0
2018-01-20T04:44:55.473Z,0
2018-01-20T04:45:55.749Z,0
2018-01-20T04:46:55.487Z,0
2018-01-20T04:47:55.768Z,0
2018-01-20T04:48:55.799Z,0
2018-01-20T04:49:55.031Z,0
2018-01-20T04:50:55.593Z,0
2018-01-20T04:52:10.225Z,0
2018-01-20T04:53:10.239Z,0
2018-01-20T04:53:55.594Z,0
2018-01-20T04:55:10.531Z,0
2018-01-20T04:55:55.863Z,0
2018-01-20T04:56:55.394Z,0
2018-01-20T04:57:55.878Z,0
2018-01-20T04:58:55.394Z,0
2018-01-20T05:00:10.593Z,0
2018-01-20T05:01:55.949Z,0
2018-01-20T05:02:55.710Z,0
2018-01-20T05:03:56.011Z,0
2018-01-20T05:05:55.760Z,0
2018-01-20T05:06:55.764Z,0
2018-01-20T05:08:55.830Z,0
2018-01-20T05:09:55.903Z,0
2018-01-20T05:11:10.763Z,0
2018-01-20T05:11:56.098Z,0
2018-01-20T05:12:56.115Z,0
2018-01-20T05:14:10.533Z,0
2018-01-20T05:15:10.828Z,0
2018-01-20T05:15:55.916Z,0
2018-01-20T05:16:55.677Z,0
2018-01-20T05:17:56.205Z,0
2018-01-20T05:20:55.974Z,0
2018-01-20T05:21:56.217Z,0
2018-01-20T05:22:56.279Z,0
2018-01-20T05:23:56.013Z,0
2018-01-20T05:25:10.949Z,0
2018-01-20T05:25:56.302Z,0
2018-01-20T05:26:56.307Z,0
2018-01-20T05:27:55.549Z,0
2018-01-20T05:28:56.106Z,0
2018-01-20T05:30:11.011Z,0
2018-01-20T05:30:56.343Z,0
2018-01-20T05:31:56.361Z,0
2018-01-20T05:32:56.392Z,0
2018-01-20T05:33:56.420Z,0
2018-01-20T05:34:56.175Z,0
2018-01-20T05:35:56.473Z,0
2018-01-20T05:36:56.465Z,0
2018-01-20T05:37:56.548Z,0
2018-01-20T05:39:10.893Z,0
2018-01-20T05:40:10.653Z,0
2018-01-20T05:40:56.282Z,0
2018-01-20T05:41:56.293Z,0
2018-01-20T05:42:56.375Z,0
2018-01-20T05:43:56.581Z,0
2018-01-20T05:44:56.622Z,0
2018-01-20T05:46:11.252Z,0
2018-01-20T05:47:11.028Z,0
2018-01-20T05:47:56.608Z,0
2018-01-20T05:48:56.660Z,0
2018-01-20T05:49:56.381Z,0
2018-01-20T05:50:56.124Z,0
2018-01-20T05:51:56.668Z,0
2018-01-20T05:53:56.169Z,0
2018-01-20T05:54:56.683Z,0
2018-01-20T05:55:56.477Z,0
2018-01-20T05:56:56.768Z,0
2018-01-20T05:57:56.489Z,0
2018-01-20T05:59:56.793Z,0
2018-01-20T06:01:56.059Z,0
2018-01-20T06:03:11.506Z,0
2018-01-20T06:03:56.815Z,0
2018-01-20T06:04:56.921Z,0
2018-01-20T06:05:56.880Z,0
2018-01-20T06:07:11.575Z,0
2018-01-20T06:07:56.652Z,0
2018-01-20T06:08:56.653Z,0
2018-01-20T06:10:11.600Z,0
2018-01-20T06:10:56.937Z,0
2018-01-20T06:12:11.689Z,0
2018-01-20T06:12:56.714Z,0
2018-01-20T06:13:56.726Z,0
2018-01-20T06:14:56.786Z,0
2018-01-20T06:15:57.102Z,0
2018-01-20T06:16:56.992Z,0
2018-01-20T06:19:11.710Z,0
2018-01-20T06:19:56.817Z,0
2018-01-20T06:20:57.080Z,0
2018-01-20T06:21:56.578Z,0
2018-01-20T06:22:57.105Z,0
2018-01-20T06:23:56.897Z,0
2018-01-20T06:24:57.135Z,0
2018-01-20T06:25:57.123Z,0
2018-01-20T06:26:57.161Z,0
2018-01-20T06:27:57.281Z,0
2018-01-20T06:28:56.918Z,0
2018-01-20T06:30:11.631Z,0
2018-01-20T06:30:57.242Z,0
2018-01-20T06:31:56.733Z,0
2018-01-20T06:33:11.911Z,0
2018-01-20T06:33:56.767Z,0
2018-01-20T06:35:12.002Z,0
2018-01-20T06:35:57.048Z,0
2018-01-20T06:36:57.304Z,0
2018-01-20T06:37:57.087Z,0
2018-01-20T06:39:57.098Z,0
2018-01-20T06:40:56.849Z,4
2018-01-20T06:41:57.379Z,4
2018-01-20T06:42:57.373Z,0
2018-01-20T06:43:56.899Z,4
2018-01-20T06:44:57.192Z,4
2018-01-20T06:45:57.200Z,4
2018-01-20T06:46:56.955Z,4
2018-01-20T06:47:57.435Z,8
2018-01-20T06:48:57.231Z,8
2018-01-20T06:50:11.998Z,12
2018-01-20T06:50:57.508Z,16
2018-01-20T06:52:12.327Z,16
2018-01-20T06:52:57.260Z,20
2018-01-20T06:53:57.313Z,20
2018-01-20T06:54:57.336Z,28
2018-01-20T06:56:57.576Z,36
2018-01-20T06:57:57.603Z,40
2018-01-20T06:58:57.401Z,40
2018-01-20T06:59:57.614Z,40
2018-01-20T07:00:57.170Z,40
2018-01-20T07:01:57.160Z,36
2018-01-20T07:02:57.180Z,32
2018-01-20T07:04:57.457Z,36
2018-01-20T07:05:57.449Z,40
2018-01-20T07:06:57.762Z,36
2018-01-20T07:07:57.472Z,40
2018-01-20T07:08:57.522Z,44
2018-01-20T07:09:57.636Z,52
2018-01-20T07:10:57.810Z,56
2018-01-20T07:11:57.309Z,60
2018-01-20T07:12:57.321Z,68
2018-01-20T07:14:12.241Z,84
2018-01-20T07:14:57.372Z,96
2018-01-20T07:16:57.862Z,120
2018-01-20T07:17:57.908Z,140
2018-01-20T07:18:57.657Z,148
2018-01-20T07:19:57.925Z,152
2018-01-20T07:20:57.932Z,164
2018-01-20T07:22:12.644Z,184
2018-01-20T07:22:57.972Z,204
2018-01-20T07:23:57.966Z,224
2018-01-20T07:24:57.482Z,228
2018-01-20T07:25:57.754Z,228
2018-01-20T07:26:58.001Z,240
2018-01-20T07:27:58.051Z,260
2018-01-20T07:29:12.728Z,252
2018-01-20T07:29:57.792Z,268
2018-01-20T07:31:57.845Z,268
2018-01-20T07:32:57.866Z,280
2018-01-20T07:33:57.607Z,276
2018-01-20T07:35:12.560Z,252
2018-01-20T07:35:57.762Z,240
2018-01-20T07:37:12.841Z,216
2018-01-20T07:38:12.346Z,220
2018-01-20T07:38:58.031Z,252
2018-01-20T07:39:58.202Z,280
2018-01-20T07:40:58.213Z,260
2018-01-20T07:41:58.218Z,236
2018-01-20T07:42:58.392Z,240
2018-01-20T07:43:58.107Z,240
2018-01-20T07:44:58.283Z,228
2018-01-20T07:46:12.972Z,268
2018-01-20T07:46:58.375Z,284
2018-01-20T07:47:58.051Z,308
2018-01-20T07:48:58.092Z,320
2018-01-20T07:50:12.762Z,332
2018-01-20T07:51:13.045Z,336
2018-01-20T07:51:58.359Z,356
2018-01-20T07:52:58.415Z,368
2018-01-20T07:54:13.086Z,368
2018-01-20T07:54:58.449Z,392
2018-01-20T07:55:58.448Z,416
2018-01-20T07:56:58.430Z,424
2018-01-20T07:57:58.441Z,452
2018-01-20T07:58:58.265Z,476
2018-01-20T07:59:58.506Z,492
2018-01-20T08:00:58.505Z,508
2018-01-20T08:01:58.521Z,536
2018-01-20T08:02:58.550Z,564
2018-01-20T08:03:58.556Z,632
2018-01-20T08:05:13.243Z,688
2018-01-20T08:05:58.345Z,732
2018-01-20T08:06:58.592Z,764
2018-01-20T08:07:58.652Z,784
2018-01-20T08:08:58.360Z,848
2018-01-20T08:10:13.316Z,1004
2018-01-20T08:10:58.669Z,1096
2018-01-20T08:11:58.687Z,1228
2018-01-20T08:12:58.683Z,1380
2018-01-20T08:13:58.704Z,1504
2018-01-20T08:14:58.443Z,1612
2018-01-20T08:15:58.719Z,1712
2018-01-20T08:16:58.739Z,1848
2018-01-20T08:17:58.274Z,1952
2018-01-20T08:18:58.769Z,2056
2018-01-20T08:20:58.913Z,2108
2018-01-20T08:21:58.852Z,2088
2018-01-20T08:23:58.861Z,2180
2018-01-20T08:25:13.300Z,2200
2018-01-20T08:25:58.852Z,2172
2018-01-20T08:26:58.867Z,2288
2018-01-20T08:27:59.132Z,2408
2018-01-20T08:28:58.680Z,2552
2018-01-20T08:29:58.957Z,2556
2018-01-20T08:30:58.707Z,2640
2018-01-20T08:31:58.940Z,2888
2018-01-20T08:32:59.085Z,3208
2018-01-20T08:34:13.766Z,3236
2018-01-20T08:35:13.668Z,3320
2018-01-20T08:35:59.001Z,3288
2018-01-20T08:36:59.024Z,2964
2018-01-20T08:37:59.067Z,2844
2018-01-20T08:39:13.848Z,2708
2018-01-20T08:39:58.866Z,2624
2018-01-20T08:40:59.116Z,2532
2018-01-20T08:41:59.115Z,2472
2018-01-20T08:42:58.869Z,2424
2018-01-20T08:43:59.139Z,2368
2018-01-20T08:44:59.175Z,2308
2018-01-20T08:45:58.926Z,2260
2018-01-20T08:46:58.949Z,2200
2018-01-20T08:47:59.217Z,2184
2018-01-20T08:48:58.952Z,2184
2018-01-20T08:50:59.266Z,2296
2018-01-20T08:51:58.991Z,2380
2018-01-20T08:52:59.034Z,2460
2018-01-20T08:53:59.016Z,2512
2018-01-20T08:54:59.285Z,2560
2018-01-20T08:56:13.981Z,2656
2018-01-20T08:57:13.771Z,2744
2018-01-20T08:57:59.376Z,2788
2018-01-20T08:58:59.406Z,2848
2018-01-20T08:59:59.103Z,2892
2018-01-20T09:00:59.396Z,2948
2018-01-20T09:01:59.449Z,3032
2018-01-20T09:02:59.419Z,3112
2018-01-20T09:03:59.411Z,3200
2018-01-20T09:04:59.302Z,3324
2018-01-20T09:05:59.491Z,3376
2018-01-20T09:07:14.161Z,3372
2018-01-20T09:07:59.482Z,3384
2018-01-20T09:08:59.517Z,3436
2018-01-20T09:09:59.362Z,3528
2018-01-20T09:10:59.294Z,3572
2018-01-20T09:11:59.600Z,3608
2018-01-20T09:13:14.270Z,3580
2018-01-20T09:13:59.693Z,3600
2018-01-20T09:14:59.365Z,3712
2018-01-20T09:15:59.347Z,3772
2018-01-20T09:16:59.640Z,3872
2018-01-20T09:17:59.629Z,3972
2018-01-20T09:18:59.666Z,3856
2018-01-20T09:19:59.440Z,3908
2018-01-20T09:20:59.704Z,4148
2018-01-20T09:21:59.845Z,4220
2018-01-20T09:22:59.710Z,4000
2018-01-20T09:23:59.722Z,4344
2018-01-20T09:24:59.779Z,4756
2018-01-20T09:26:14.431Z,4708
2018-01-20T09:26:59.815Z,4324
2018-01-20T09:27:59.581Z,3648
2018-01-20T09:29:14.519Z,3404
2018-01-20T09:30:14.014Z,3312
2018-01-20T09:30:59.830Z,3280
2018-01-20T09:31:59.852Z,3340
2018-01-20T09:32:59.873Z,3608
2018-01-20T09:33:59.990Z,3508
2018-01-20T09:34:59.929Z,3588
2018-01-20T09:35:59.679Z,3520
2018-01-20T09:36:59.941Z,3712
2018-01-20T09:38:14.630Z,3648
2018-01-20T09:39:14.669Z,3740
2018-01-20T09:40:59.758Z,3784
2018-01-20T09:41:59.996Z,3844
2018-01-20T09:44:00.065Z,3316
2018-01-20T09:45:14.756Z,3100
2018-01-20T09:46:00.053Z,3008
2018-01-20T09:46:59.852Z,2932
2018-01-20T09:48:00.085Z,2956
2018-01-20T09:49:00.157Z,3040
2018-01-20T09:50:59.648Z,3308
2018-01-20T09:51:59.930Z,3352
2018-01-20T09:53:00.183Z,3152
2018-01-20T09:53:59.932Z,3164
2018-01-20T09:55:00.215Z,3164
2018-01-20T09:56:00.222Z,3056
2018-01-20T09:57:00.365Z,2808
2018-01-20T09:58:14.952Z,2428
2018-01-20T10:00:15.090Z,1880
2018-01-20T10:00:59.793Z,1940
2018-01-20T10:03:00.086Z,2348
2018-01-20T10:04:00.461Z,2664
2018-01-20T10:06:14.788Z,3468
2018-01-20T10:07:14.803Z,3696
2018-01-20T10:08:00.161Z,3800
2018-01-20T10:09:00.257Z,3200
2018-01-20T10:10:15.120Z,2140
2018-01-20T10:11:00.475Z,2096
2018-01-20T10:12:00.474Z,2388
2018-01-20T10:13:15.144Z,2796
2018-01-20T10:14:00.347Z,3076
2018-01-20T10:16:00.529Z,4076
2018-01-20T10:17:00.520Z,5560
2018-01-20T10:18:00.577Z,7348
2018-01-20T10:19:00.598Z,7804
2018-01-20T10:20:00.604Z,7028
2018-01-20T10:21:00.588Z,6724
2018-01-20T10:22:00.463Z,6252
2018-01-20T10:23:00.627Z,5748
2018-01-20T10:24:00.650Z,5464
2018-01-20T10:25:00.446Z,5140
2018-01-20T10:26:00.700Z,4712
2018-01-20T10:27:00.439Z,3652
2018-01-20T10:28:00.568Z,2988
2018-01-20T10:29:00.742Z,2732
2018-01-20T10:30:00.499Z,2520
2018-01-20T10:31:15.426Z,2528
2018-01-20T10:32:15.188Z,2964
2018-01-20T10:33:00.823Z,3004
2018-01-20T10:34:00.818Z,2932
2018-01-20T10:35:00.574Z,2940
2018-01-20T10:36:15.541Z,3036
2018-01-20T10:37:00.863Z,3188
2018-01-20T10:38:00.989Z,3420
2018-01-20T10:39:00.852Z,3624
2018-01-20T10:41:15.598Z,3888
2018-01-20T10:43:15.637Z,3520
2018-01-20T10:44:00.696Z,3440
2018-01-20T10:45:15.646Z,3324
2018-01-20T10:46:01.044Z,2948
2018-01-20T10:47:01.005Z,2532
2018-01-20T10:48:15.456Z,2376
2018-01-20T10:49:01.063Z,2384
2018-01-20T10:50:01.074Z,2304
2018-01-20T10:51:00.820Z,2120
2018-01-20T10:52:15.502Z,2208
2018-01-20T10:53:01.233Z,2320
2018-01-20T10:54:01.119Z,2480
2018-01-20T10:55:00.881Z,2764
2018-01-20T10:56:00.885Z,2848
2018-01-20T10:57:01.171Z,2760
2018-01-20T10:58:01.199Z,2736
2018-01-20T10:59:01.052Z,2676
2018-01-20T11:00:15.656Z,2636
2018-01-20T11:01:00.713Z,2856
2018-01-20T11:02:01.008Z,3176
2018-01-20T11:03:00.759Z,3160
2018-01-20T11:04:15.966Z,2640
2018-01-20T11:05:01.269Z,2380
2018-01-20T11:06:15.981Z,2288
2018-01-20T11:07:01.056Z,2300
2018-01-20T11:08:01.063Z,2032
2018-01-20T11:09:01.377Z,1996
2018-01-20T11:10:01.413Z,2068
2018-01-20T11:11:16.069Z,2332
2018-01-20T11:12:01.149Z,2300
2018-01-20T11:13:15.839Z,2436
2018-01-20T11:14:00.928Z,2528
2018-01-20T11:15:01.174Z,2588
2018-01-20T11:16:01.226Z,2628
2018-01-20T11:17:01.480Z,3028
2018-01-20T11:19:01.509Z,4140
2018-01-20T11:20:16.037Z,4508
2018-01-20T11:21:01.548Z,4544
2018-01-20T11:22:01.301Z,4528
2018-01-20T11:23:01.352Z,4536
2018-01-20T11:24:01.339Z,4704
2018-01-20T11:25:01.608Z,4708
2018-01-20T11:26:01.727Z,4792
2018-01-20T11:27:01.637Z,4968
2018-01-20T11:28:01.393Z,5536
2018-01-20T11:29:01.687Z,5640
2018-01-20T11:30:01.687Z,5552
2018-01-20T11:31:01.683Z,5080
2018-01-20T11:32:01.705Z,5492
2018-01-20T11:33:16.155Z,5844
2018-01-20T11:34:01.854Z,5808
2018-01-20T11:35:16.448Z,5332
2018-01-20T11:36:01.305Z,5152
2018-01-20T11:37:16.233Z,5136
2018-01-20T11:38:01.563Z,5016
2018-01-20T11:40:01.602Z,5028
2018-01-20T11:41:01.883Z,5016
2018-01-20T11:42:01.923Z,4716
2018-01-20T11:44:01.949Z,4688
2018-01-20T11:45:01.964Z,4408
2018-01-20T11:46:01.975Z,4108
2018-01-20T11:47:01.951Z,3780
2018-01-20T11:48:01.971Z,3456
2018-01-20T11:49:02.026Z,3048
2018-01-20T11:50:01.481Z,2624
2018-01-20T11:51:02.020Z,2288
2018-01-20T11:52:01.784Z,2240
2018-01-20T11:53:02.050Z,2456
2018-01-20T11:54:02.068Z,2772
2018-01-20T11:55:02.081Z,2936
2018-01-20T11:56:01.856Z,2972
2018-01-20T11:58:01.656Z,2948
2018-01-20T11:59:01.912Z,2992
2018-01-20T12:00:01.921Z,2952
2018-01-20T12:01:02.035Z,2800
2018-01-20T12:02:01.982Z,2564
2018-01-20T12:03:02.189Z,2292
2018-01-20T12:04:02.261Z,2036
2018-01-20T12:06:02.013Z,1940
2018-01-20T12:07:16.713Z,2212
2018-01-20T12:08:02.065Z,2428
2018-01-20T12:09:01.825Z,2652
2018-01-20T12:10:02.332Z,2796
2018-01-20T12:11:01.883Z,2856
2018-01-20T12:12:01.868Z,2724
2018-01-20T12:13:02.116Z,2484
2018-01-20T12:14:02.398Z,2192
2018-01-20T12:15:02.426Z,2040
2018-01-20T12:17:02.438Z,2332
2018-01-20T12:18:02.217Z,2448
2018-01-20T12:19:01.972Z,2568
2018-01-20T12:20:02.509Z,2564
2018-01-20T12:21:17.163Z,2696
2018-01-20T12:22:02.522Z,2740
2018-01-20T12:23:17.224Z,2736
2018-01-20T12:24:02.558Z,2588
2018-01-20T12:25:02.335Z,2380
2018-01-20T12:26:02.628Z,2296
2018-01-20T12:27:02.349Z,2352
2018-01-20T12:28:02.622Z,2440
2018-01-20T12:29:02.636Z,2332
2018-01-20T12:30:02.640Z,2204
2018-01-20T12:31:02.664Z,2232
2018-01-20T12:32:02.669Z,2248
2018-01-20T12:33:02.423Z,2408
2018-01-20T12:34:02.488Z,2468
2018-01-20T12:35:02.775Z,2312
2018-01-20T12:36:02.741Z,1988
2018-01-20T12:37:02.805Z,1676
2018-01-20T12:38:02.763Z,1644
2018-01-20T12:40:02.825Z,2260
2018-01-20T12:42:02.612Z,2892
2018-01-20T12:43:02.628Z,3136
2018-01-20T12:44:02.869Z,3336
2018-01-20T12:45:02.912Z,3348
2018-01-20T12:46:02.652Z,3140
2018-01-20T12:47:17.367Z,2948
2018-01-20T12:48:17.632Z,3196
2018-01-20T12:49:17.376Z,3536
2018-01-20T12:50:02.942Z,3724
2018-01-20T12:52:02.996Z,4032
2018-01-20T12:53:03.013Z,4116
2018-01-20T12:54:02.759Z,4152
2018-01-20T12:55:17.830Z,4144
2018-01-20T12:56:03.184Z,4104
2018-01-20T12:57:03.088Z,3996
2018-01-20T12:58:02.837Z,3892
2018-01-20T12:59:02.862Z,3788
2018-01-20T13:00:03.157Z,3660
2018-01-20T13:02:03.145Z,3432
2018-01-20T13:03:17.586Z,3320
2018-01-20T13:04:17.906Z,3220
2018-01-20T13:05:03.198Z,3128
2018-01-20T13:06:02.960Z,2968
2018-01-20T13:07:02.736Z,2820
2018-01-20T13:08:03.262Z,2652
2018-01-20T13:09:03.027Z,2536
2018-01-20T13:10:17.972Z,2348
2018-01-20T13:11:03.310Z,2248
2018-01-20T13:12:03.381Z,2192
2018-01-20T13:13:03.094Z,2208
2018-01-20T13:14:03.368Z,2160
2018-01-20T13:15:03.206Z,2084
2018-01-20T13:16:03.406Z,1940
2018-01-20T13:17:03.384Z,1768
2018-01-20T13:19:03.466Z,1424
2018-01-20T13:20:17.908Z,1400
2018-01-20T13:21:03.219Z,1436
2018-01-20T13:22:03.492Z,1440
2018-01-20T13:23:03.136Z,1388
2018-01-20T13:25:03.534Z,1208
2018-01-20T13:26:03.531Z,1080
2018-01-20T13:27:03.569Z,1016
2018-01-20T13:28:03.613Z,1004
2018-01-20T13:29:03.359Z,984
2018-01-20T13:30:03.412Z,1004
2018-01-20T13:31:03.655Z,1044
2018-01-20T13:32:03.631Z,1016
2018-01-20T13:34:03.192Z,1024
2018-01-20T13:35:03.696Z,1048
2018-01-20T13:36:18.394Z,1064
2018-01-20T13:37:03.500Z,1072
2018-01-20T13:38:03.762Z,1076
2018-01-20T13:39:03.742Z,1056
2018-01-20T13:40:03.791Z,1104
2018-01-20T13:41:03.824Z,1232
2018-01-20T13:42:18.490Z,1420
2018-01-20T13:43:03.829Z,1528
2018-01-20T13:44:03.883Z,1668
2018-01-20T13:46:03.898Z,2128
2018-01-20T13:47:03.902Z,2376
2018-01-20T13:48:03.911Z,2520
2018-01-20T13:49:03.932Z,2340
2018-01-20T13:50:18.352Z,2084
2018-01-20T13:51:03.970Z,1988
2018-01-20T13:52:03.979Z,1828
2018-01-20T13:53:04.114Z,1676
2018-01-20T13:54:03.991Z,1480
2018-01-20T13:55:04.004Z,1280
2018-01-20T13:56:04.025Z,1128
2018-01-20T13:57:03.568Z,1060
2018-01-20T13:58:18.842Z,1028
2018-01-20T13:59:04.217Z,1012
2018-01-20T14:00:04.142Z,1032
2018-01-20T14:01:04.109Z,1068
2018-01-20T14:02:03.894Z,1108
2018-01-20T14:03:18.682Z,1172
2018-01-20T14:04:03.894Z,1204
2018-01-20T14:05:18.598Z,1196
2018-01-20T14:06:18.893Z,1152
2018-01-20T14:07:04.211Z,1108
2018-01-20T14:08:04.084Z,1060
2018-01-20T14:09:04.269Z,1044
2018-01-20T14:10:18.448Z,1016
2018-01-20T14:11:04.050Z,1000
2018-01-20T14:12:04.026Z,980
2018-01-20T14:13:04.344Z,960
2018-01-20T14:14:18.983Z,948
2018-01-20T14:16:04.340Z,948
2018-01-20T14:17:18.811Z,960
2018-01-20T14:18:04.374Z,948
2018-01-20T14:19:04.170Z,928
2018-01-20T14:20:04.162Z,896
2018-01-20T14:21:04.165Z,856
2018-01-20T14:22:04.186Z,836
2018-01-20T14:23:04.199Z,824
2018-01-20T14:24:04.591Z,816
2018-01-20T14:25:04.355Z,844
2018-01-20T14:26:04.364Z,880
2018-01-20T14:27:03.765Z,900
2018-01-20T14:28:04.546Z,912
2018-01-20T14:29:04.399Z,968
2018-01-20T14:30:19.242Z,1084
2018-01-20T14:31:04.330Z,1160
2018-01-20T14:32:04.636Z,1240
2018-01-20T14:33:04.117Z,1300
2018-01-20T14:34:04.397Z,1332
2018-01-20T14:35:04.432Z,1308
2018-01-20T14:36:19.357Z,1288
2018-01-20T14:37:04.180Z,1240
2018-01-20T14:38:04.726Z,1124
2018-01-20T14:39:04.737Z,1008
2018-01-20T14:40:04.754Z,900
2018-01-20T14:41:04.794Z,800
2018-01-20T14:42:04.769Z,732
2018-01-20T14:43:04.813Z,672
2018-01-20T14:44:04.831Z,620
2018-01-20T14:45:19.502Z,584
2018-01-20T14:46:04.853Z,556
2018-01-20T14:47:04.351Z,532
2018-01-20T14:48:04.413Z,512
2018-01-20T14:49:04.633Z,516
2018-01-20T14:50:04.632Z,540
2018-01-20T14:51:19.604Z,568
2018-01-20T14:52:04.673Z,560
2018-01-20T14:53:19.633Z,544
2018-01-20T14:54:05.089Z,556
2018-01-20T14:55:05.066Z,556
2018-01-20T14:56:04.776Z,536
2018-01-20T14:57:05.121Z,532
2018-01-20T14:58:04.882Z,532
2018-01-20T14:59:04.558Z,532
2018-01-20T15:00:04.558Z,532
2018-01-20T15:01:05.071Z,532
2018-01-20T15:02:04.843Z,500
2018-01-20T15:04:05.229Z,396
2018-01-20T15:05:05.151Z,344